createdAt,value
2023-05-08T00:00:21.664Z,2.27
2023-05-08T00:03:25.505Z,2.73
2023-05-08T00:06:30.858Z,2.40
2023-05-08T00:09:34.690Z,3.00
2023-05-08T00:12:38.701Z,2.20
2023-05-08T00:15:42.417Z,2.67
2023-05-08T00:18:46.185Z,2.40
2023-05-08T00:21:51.415Z,2.60
2023-05-08T00:24:55.138Z,2.60
2023-05-08T00:27:58.938Z,2.73
2023-05-08T00:31:03.400Z,2.57
2023-05-08T00:34:07.856Z,3.43
2023-05-08T00:37:12.911Z,3.20
2023-05-08T00:40:16.517Z,2.43
2023-05-08T00:43:25.867Z,2.90
2023-05-08T00:46:29.649Z,2.60
2023-05-08T00:49:35.845Z,3.20
2023-05-08T00:52:41.721Z,2.90
2023-05-08T00:55:46.018Z,2.87
2023-05-08T00:58:50.147Z,3.23
2023-05-08T01:01:54.549Z,2.87
2023-05-08T01:04:58.622Z,3.17
2023-05-08T01:08:04.186Z,3.03
2023-05-08T01:11:17.229Z,2.60
2023-05-08T01:14:27.694Z,2.80
2023-05-08T01:17:43.554Z,2.87
2023-05-08T01:20:57.089Z,2.40
2023-05-08T01:24:27.098Z,3.03
2023-05-08T01:27:53.651Z,2.63
2023-05-08T01:31:18.762Z,2.60
2023-05-08T01:34:26.406Z,2.50
2023-05-08T01:37:36.138Z,2.40
2023-05-08T01:40:51.727Z,2.70
2023-05-08T01:44:07.648Z,2.90
2023-05-08T01:47:13.593Z,3.00
2023-05-08T01:50:23.765Z,2.73
2023-05-08T01:53:31.931Z,2.63
2023-05-08T01:56:39.260Z,2.67
2023-05-08T01:59:44.354Z,2.97
2023-05-08T02:02:49.709Z,3.00
2023-05-08T02:05:58.340Z,2.90
2023-05-08T02:09:03.367Z,3.00
2023-05-08T02:12:09.326Z,2.83
2023-05-08T02:15:15.370Z,2.53
2023-05-08T02:18:22.575Z,2.70
2023-05-08T02:21:29.083Z,2.80
2023-05-08T02:24:35.390Z,2.60
2023-05-08T02:27:41.144Z,2.80
2023-05-08T02:30:47.507Z,3.10
2023-05-08T02:33:53.361Z,2.50
2023-05-08T02:37:00.969Z,2.40
2023-05-08T02:40:07.587Z,2.57
2023-05-08T02:43:11.599Z,2.50
2023-05-08T02:46:18.584Z,2.93
2023-05-08T02:49:31.400Z,2.33
2023-05-08T02:52:46.214Z,2.40
2023-05-08T02:55:53.819Z,2.67
2023-05-08T02:59:06.153Z,2.70
2023-05-08T03:02:13.925Z,2.80
2023-05-08T03:05:20.929Z,3.10
2023-05-08T03:08:31.158Z,3.10
2023-05-08T03:11:42.001Z,2.70
2023-05-08T03:14:54.575Z,2.87
2023-05-08T03:18:02.278Z,2.63
2023-05-08T03:21:08.775Z,2.60
2023-05-08T03:24:19.026Z,2.70
2023-05-08T03:27:24.145Z,2.77
2023-05-08T03:30:29.024Z,2.40
2023-05-08T03:33:44.004Z,2.50
2023-05-08T03:36:48.124Z,2.90
2023-05-08T03:39:54.380Z,2.43
2023-05-08T03:42:58.514Z,2.70
2023-05-08T03:46:03.150Z,2.93
2023-05-08T03:49:09.584Z,3.33
2023-05-08T03:52:13.721Z,2.77
2023-05-08T03:55:19.632Z,3.10
2023-05-08T03:58:28.125Z,3.00
2023-05-08T04:01:41.094Z,2.90
2023-05-08T04:04:52.077Z,2.80
2023-05-08T04:08:05.210Z,2.87
2023-05-08T04:11:17.659Z,2.90
2023-05-08T04:14:27.562Z,3.13
2023-05-08T04:17:40.879Z,3.50
2023-05-08T04:20:49.714Z,4.33
2023-05-08T04:23:54.911Z,4.60
2023-05-08T04:27:01.763Z,5.33
2023-05-08T04:30:08.080Z,5.20
2023-05-08T04:33:13.269Z,4.73
2023-05-08T04:36:16.916Z,4.67
2023-05-08T04:39:22.769Z,5.03
2023-05-08T04:42:28.773Z,4.87
2023-05-08T04:45:35.349Z,4.73
2023-05-08T04:48:39.346Z,5.33
2023-05-08T04:51:44.219Z,4.50
2023-05-08T04:54:48.008Z,5.10
2023-05-08T04:57:53.511Z,4.63
2023-05-08T05:00:57.427Z,5.47
2023-05-08T05:04:01.485Z,5.20
2023-05-08T05:07:05.500Z,4.73
2023-05-08T05:10:10.538Z,4.80
2023-05-08T05:13:15.848Z,4.53
2023-05-08T05:16:20.496Z,4.60
2023-05-08T05:19:24.428Z,4.70
2023-05-08T05:22:29.035Z,4.90
2023-05-08T05:25:32.908Z,4.50
2023-05-08T05:28:38.443Z,3.97
2023-05-08T05:31:43.063Z,4.00
2023-05-08T05:34:48.085Z,3.60
2023-05-08T05:37:52.168Z,3.17
2023-05-08T05:40:56.322Z,4.30
2023-05-08T05:44:01.540Z,4.43
2023-05-08T05:47:06.486Z,4.73
2023-05-08T05:50:11.525Z,4.53
2023-05-08T05:53:15.652Z,3.90
2023-05-08T05:56:19.439Z,3.87
2023-05-08T05:59:24.694Z,3.40
2023-05-08T06:02:28.674Z,3.70
2023-05-08T06:05:32.989Z,4.00
2023-05-08T06:08:36.922Z,3.93
2023-05-08T06:11:40.877Z,3.23
2023-05-08T06:14:46.546Z,2.63
2023-05-08T06:17:52.077Z,2.37
2023-05-08T06:20:59.223Z,3.10
2023-05-08T06:24:03.998Z,2.90
2023-05-08T06:27:07.888Z,2.50
2023-05-08T06:30:14.140Z,2.37
2023-05-08T06:33:18.052Z,2.50
2023-05-08T06:36:22.430Z,2.60
2023-05-08T06:39:26.531Z,2.90
2023-05-08T06:42:30.369Z,3.27
2023-05-08T06:45:35.531Z,3.07
2023-05-08T06:48:39.745Z,2.87
2023-05-08T06:51:43.656Z,3.13
2023-05-08T06:54:47.443Z,3.17
2023-05-08T06:57:51.392Z,3.05
2023-05-08T07:00:56.622Z,3.35
2023-05-08T07:04:00.994Z,3.22
2023-05-08T07:07:07.107Z,3.70
2023-05-08T07:10:11.780Z,3.80
2023-05-08T07:13:15.658Z,3.50
2023-05-08T07:16:21.007Z,3.30
2023-05-08T07:19:25.257Z,3.08
2023-05-08T07:22:29.031Z,3.05
2023-05-08T07:25:32.884Z,3.65
2023-05-08T07:28:36.676Z,3.47
2023-05-08T07:31:42.814Z,3.20
2023-05-08T07:34:46.558Z,3.10
2023-05-08T07:37:50.360Z,3.00
2023-05-08T07:40:57.502Z,3.65
2023-05-08T07:44:01.432Z,3.25
2023-05-08T07:47:07.196Z,3.25
2023-05-08T07:50:12.035Z,3.55
2023-05-08T07:53:15.828Z,3.90
2023-05-08T07:56:19.642Z,3.15
2023-05-08T07:59:23.492Z,3.90
2023-05-08T08:02:28.887Z,3.42
2023-05-08T08:05:32.816Z,3.80
2023-05-08T08:08:36.554Z,3.35
2023-05-08T08:11:40.420Z,3.35
2023-05-08T08:14:44.189Z,4.93
2023-05-08T08:17:49.530Z,3.40
2023-05-08T08:20:53.353Z,3.45
2023-05-08T08:23:57.318Z,3.45
2023-05-08T08:27:01.172Z,3.78
2023-05-08T08:30:16.175Z,3.65
2023-05-08T08:33:22.803Z,4.75
2023-05-08T08:36:26.693Z,3.70
2023-05-08T08:39:34.765Z,3.80
2023-05-08T08:42:38.711Z,4.25
2023-05-08T08:45:42.452Z,4.43
2023-05-08T08:48:48.978Z,3.90
2023-05-08T08:51:56.075Z,4.30
2023-05-08T08:55:02.652Z,4.10
2023-05-08T08:58:16.741Z,4.18
2023-05-08T09:01:22.302Z,4.28
2023-05-08T09:04:29.848Z,4.57
2023-05-08T09:07:34.844Z,4.32
2023-05-08T09:10:38.885Z,4.32
2023-05-08T09:13:42.716Z,4.60
2023-05-08T09:16:47.051Z,4.03
2023-05-08T09:19:53.959Z,3.60
2023-05-08T09:22:59.060Z,4.35
2023-05-08T09:26:03.074Z,4.50
2023-05-08T09:29:10.991Z,4.00
2023-05-08T09:32:20.140Z,4.60
2023-05-08T09:35:38.127Z,3.70
2023-05-08T09:38:44.309Z,3.97
2023-05-08T09:42:00.221Z,3.83
2023-05-08T09:45:04.053Z,6.05
2023-05-08T09:48:08.253Z,4.30
2023-05-08T09:51:13.807Z,4.82
2023-05-08T09:54:19.839Z,4.55
2023-05-08T09:57:23.621Z,4.40
2023-05-08T10:00:29.109Z,4.72
2023-05-08T10:03:48.489Z,5.38
2023-05-08T10:07:01.526Z,4.53
2023-05-08T10:10:06.813Z,4.72
2023-05-08T10:13:10.691Z,5.40
2023-05-08T10:16:17.389Z,6.50
2023-05-08T10:19:23.098Z,5.50
2023-05-08T10:22:29.793Z,5.40
2023-05-08T10:25:36.619Z,5.60
2023-05-08T10:28:46.254Z,5.53
2023-05-08T10:31:55.848Z,5.60
2023-05-08T10:35:01.482Z,5.13
2023-05-08T10:38:10.146Z,6.05
2023-05-08T10:41:15.205Z,5.18
2023-05-08T10:44:20.798Z,5.10
2023-05-08T10:47:29.504Z,5.13
2023-05-08T10:50:48.029Z,4.88
2023-05-08T10:53:58.663Z,4.72
2023-05-08T10:57:11.433Z,4.75
2023-05-08T11:00:16.263Z,4.93
2023-05-08T11:03:31.441Z,4.97
2023-05-08T11:06:47.298Z,4.93
2023-05-08T11:09:53.237Z,4.93
2023-05-08T11:12:57.583Z,4.80
2023-05-08T11:16:01.820Z,4.60
2023-05-08T11:19:19.239Z,5.07
2023-05-08T11:22:26.254Z,5.13
2023-05-08T11:25:46.373Z,5.20
2023-05-08T11:28:58.803Z,5.22
2023-05-08T11:32:02.805Z,5.40
2023-05-08T11:35:11.592Z,5.53
2023-05-08T11:38:23.488Z,5.25
2023-05-08T11:41:28.913Z,5.35
2023-05-08T11:44:33.271Z,5.10
2023-05-08T11:47:42.126Z,4.50
2023-05-08T11:50:46.992Z,5.00
2023-05-08T11:53:51.033Z,5.47
2023-05-08T11:56:56.344Z,5.40
2023-05-08T12:00:00.413Z,5.10
2023-05-08T12:03:09.136Z,5.32
2023-05-08T12:06:13.224Z,4.68
2023-05-08T12:09:19.073Z,5.20
2023-05-08T12:12:24.500Z,4.80
2023-05-08T12:15:28.843Z,5.10
2023-05-08T12:18:32.993Z,5.10
2023-05-08T12:21:37.615Z,3.80
2023-05-08T12:24:41.696Z,4.25
2023-05-08T12:27:47.529Z,3.88
2023-05-08T12:30:51.919Z,3.80
2023-05-08T12:33:56.965Z,4.10
2023-05-08T12:37:05.396Z,3.63
2023-05-08T12:40:25.242Z,3.35
2023-05-08T12:43:37.504Z,3.25
2023-05-08T12:46:48.712Z,3.05
2023-05-08T12:49:53.007Z,3.28
2023-05-08T12:53:03.097Z,3.13
2023-05-08T12:56:07.671Z,3.20
2023-05-08T12:59:13.140Z,3.38
2023-05-08T13:02:21.258Z,2.95
2023-05-08T13:05:25.973Z,3.40
2023-05-08T13:08:34.439Z,2.83
2023-05-08T13:11:39.667Z,3.10
2023-05-08T13:14:45.048Z,3.20
2023-05-08T13:17:49.039Z,3.00
2023-05-08T13:20:53.108Z,2.70
2023-05-08T13:23:57.472Z,2.60
2023-05-08T13:27:01.393Z,3.00
2023-05-08T13:30:08.237Z,2.80
2023-05-08T13:33:12.346Z,3.08
2023-05-08T13:36:16.401Z,3.00
2023-05-08T13:39:20.366Z,2.83
2023-05-08T13:42:24.345Z,2.90
2023-05-08T13:45:30.061Z,3.13
2023-05-08T13:48:34.020Z,2.88
2023-05-08T13:51:38.089Z,2.92
2023-05-08T13:54:41.996Z,2.78
2023-05-08T13:57:46.092Z,3.38
2023-05-08T14:00:51.643Z,3.22
2023-05-08T14:03:55.855Z,3.08
2023-05-08T14:06:59.998Z,3.15
2023-05-08T14:10:04.093Z,3.03
2023-05-08T14:13:08.124Z,3.10
2023-05-08T14:16:14.684Z,2.60
2023-05-08T14:19:18.860Z,2.75
2023-05-08T14:22:22.975Z,2.65
2023-05-08T14:25:27.007Z,2.60
2023-05-08T14:28:31.008Z,2.65
2023-05-08T14:31:36.261Z,2.78
2023-05-08T14:34:40.223Z,2.53
2023-05-08T14:37:44.053Z,2.83
2023-05-08T14:40:51.145Z,3.03
2023-05-08T14:43:54.978Z,2.75
2023-05-08T14:47:00.313Z,3.38
2023-05-08T14:50:04.191Z,2.40
2023-05-08T14:53:08.119Z,2.80
2023-05-08T14:56:12.095Z,2.80
2023-05-08T14:59:16.307Z,2.97
2023-05-08T15:02:21.647Z,3.63
2023-05-08T15:05:25.683Z,2.88
2023-05-08T15:08:29.795Z,2.80
2023-05-08T15:11:33.855Z,3.65
2023-05-08T15:14:37.633Z,3.15
2023-05-08T15:17:42.928Z,4.28
2023-05-08T15:20:46.799Z,3.35
2023-05-08T15:23:50.697Z,3.05
2023-05-08T15:26:54.530Z,3.70
2023-05-08T15:29:59.159Z,3.30
2023-05-08T15:33:04.478Z,3.10
2023-05-08T15:36:08.816Z,3.33
2023-05-08T15:39:12.837Z,2.75
2023-05-08T15:42:16.744Z,2.78
2023-05-08T15:45:20.714Z,3.00
2023-05-08T15:48:26.120Z,2.58
2023-05-08T15:51:30.112Z,2.95
2023-05-08T15:54:33.898Z,2.90
2023-05-08T15:57:37.741Z,4.88
2023-05-08T16:00:45.270Z,3.67
2023-05-08T16:03:51.052Z,3.55
2023-05-08T16:06:56.158Z,3.20
2023-05-08T16:09:59.937Z,3.97
2023-05-08T16:13:03.849Z,3.47
2023-05-08T16:16:08.256Z,3.63
2023-05-08T16:19:13.572Z,3.30
2023-05-08T16:22:17.570Z,4.47
2023-05-08T16:25:21.543Z,3.92
2023-05-08T16:28:25.541Z,4.07
2023-05-08T16:31:29.656Z,3.60
2023-05-08T16:34:36.294Z,3.20
2023-05-08T16:37:40.246Z,3.90
2023-05-08T16:40:45.303Z,3.85
2023-05-08T16:43:49.264Z,4.40
2023-05-08T16:46:53.252Z,6.63
2023-05-08T16:49:58.733Z,6.82
2023-05-08T16:53:03.776Z,5.55
2023-05-08T16:56:08.471Z,5.22
2023-05-08T16:59:12.343Z,6.28
2023-05-08T17:02:19.334Z,5.60
2023-05-08T17:05:25.262Z,5.78
2023-05-08T17:08:29.238Z,5.55
2023-05-08T17:11:33.244Z,6.15
2023-05-08T17:14:38.311Z,6.00
2023-05-08T17:17:42.680Z,6.22
2023-05-08T17:20:49.609Z,5.53
2023-05-08T17:23:53.540Z,5.33
2023-05-08T17:26:57.460Z,4.63
2023-05-08T17:30:01.322Z,5.50
2023-05-08T17:33:05.405Z,4.87
2023-05-08T17:36:11.661Z,5.72
2023-05-08T17:39:15.935Z,6.73
2023-05-08T17:42:19.790Z,5.77
2023-05-08T17:45:23.745Z,5.53
2023-05-08T17:48:27.593Z,6.70
2023-05-08T17:51:33.017Z,5.23
2023-05-08T17:54:36.804Z,4.90
2023-05-08T17:57:41.262Z,4.70
2023-05-08T18:00:45.103Z,4.30
2023-05-08T18:03:49.228Z,4.83
2023-05-08T18:06:54.588Z,4.50
2023-05-08T18:09:58.486Z,4.57
2023-05-08T18:13:02.300Z,4.90
2023-05-08T18:16:06.260Z,4.77
2023-05-08T18:19:10.224Z,5.50
2023-05-08T18:22:15.825Z,5.30
2023-05-08T18:25:19.874Z,5.37
2023-05-08T18:28:23.762Z,5.73
2023-05-08T18:31:27.773Z,5.50
2023-05-08T18:34:32.728Z,6.40
2023-05-08T18:37:38.011Z,5.40
2023-05-08T18:40:41.855Z,5.50
2023-05-08T18:43:45.760Z,4.63
2023-05-08T18:46:49.666Z,5.03
2023-05-08T18:49:53.786Z,4.90
2023-05-08T18:52:59.888Z,4.43
2023-05-08T18:56:04.773Z,4.63
2023-05-08T18:59:08.970Z,4.03
2023-05-08T19:02:12.891Z,5.03
2023-05-08T19:05:16.855Z,5.07
2023-05-08T19:08:22.233Z,5.33
2023-05-08T19:11:26.316Z,6.23
2023-05-08T19:14:30.144Z,6.23
2023-05-08T19:17:35.165Z,6.07
2023-05-08T19:20:38.990Z,5.77
2023-05-08T19:23:44.372Z,5.40
2023-05-08T19:26:48.426Z,3.90
2023-05-08T19:29:52.478Z,4.23
2023-05-08T19:32:56.381Z,4.90
2023-05-08T19:36:00.265Z,5.00
2023-05-08T19:39:05.765Z,4.50
2023-05-08T19:42:10.804Z,4.00
2023-05-08T19:45:16.572Z,4.17
2023-05-08T19:48:20.594Z,4.67
2023-05-08T19:51:24.580Z,4.40
2023-05-08T19:54:30.366Z,5.50
2023-05-08T19:57:34.244Z,4.80
2023-05-08T20:00:38.242Z,4.27
2023-05-08T20:03:42.193Z,4.47
2023-05-08T20:06:46.284Z,4.80
2023-05-08T20:09:51.537Z,3.77
2023-05-08T20:12:55.529Z,4.20
2023-05-08T20:15:59.929Z,4.07
2023-05-08T20:19:03.945Z,3.57
2023-05-08T20:22:07.839Z,3.50
2023-05-08T20:25:13.014Z,3.90
2023-05-08T20:28:22.416Z,3.00
2023-05-08T20:31:27.984Z,3.87
2023-05-08T20:34:31.990Z,3.33
2023-05-08T20:37:36.585Z,4.03
2023-05-08T20:40:42.492Z,4.03
2023-05-08T20:43:46.421Z,3.43
2023-05-08T20:46:51.507Z,3.60
2023-05-08T20:49:55.708Z,3.67
2023-05-08T20:52:59.547Z,3.80
2023-05-08T20:56:05.633Z,3.50
2023-05-08T20:59:09.681Z,4.00
2023-05-08T21:02:13.456Z,3.80
2023-05-08T21:05:17.340Z,4.33
2023-05-08T21:08:23.945Z,4.63
2023-05-08T21:11:29.233Z,5.43
2023-05-08T21:14:33.084Z,5.67
2023-05-08T21:17:36.991Z,4.87
2023-05-08T21:20:40.822Z,4.90
2023-05-08T21:23:44.738Z,5.50
2023-05-08T21:26:50.091Z,5.47
2023-05-08T21:29:53.960Z,5.80
2023-05-08T21:32:57.850Z,5.30
2023-05-08T21:36:02.817Z,4.93
2023-05-08T21:39:06.782Z,5.67
2023-05-08T21:42:12.815Z,5.53
2023-05-08T21:45:16.620Z,6.50
2023-05-08T21:48:20.470Z,6.53
2023-05-08T21:51:24.334Z,7.10
2023-05-08T21:54:28.150Z,7.07
2023-05-08T21:57:33.601Z,8.80
2023-05-08T22:00:37.449Z,7.50
2023-05-08T22:03:41.428Z,6.00
2023-05-08T22:06:45.267Z,5.73
2023-05-08T22:09:49.022Z,5.17
2023-05-08T22:12:54.347Z,5.23
2023-05-08T22:15:58.288Z,6.40
2023-05-08T22:19:02.132Z,6.63
2023-05-08T22:22:06.255Z,7.00
2023-05-08T22:25:10.921Z,6.80
2023-05-08T22:28:16.166Z,6.80
2023-05-08T22:31:20.110Z,6.70
2023-05-08T22:34:23.953Z,6.20
2023-05-08T22:37:27.741Z,5.90
2023-05-08T22:40:31.672Z,6.10
2023-05-08T22:43:38.198Z,5.40
2023-05-08T22:46:42.382Z,5.50
2023-05-08T22:49:46.583Z,5.10
2023-05-08T22:52:50.423Z,5.27
2023-05-08T22:55:54.164Z,5.97
2023-05-08T22:58:59.414Z,5.60
2023-05-08T23:02:03.228Z,5.27
2023-05-08T23:05:08.279Z,5.60
2023-05-08T23:08:12.201Z,5.50
2023-05-08T23:11:16.038Z,5.30
2023-05-08T23:14:21.331Z,5.33
2023-05-08T23:17:25.169Z,6.10
2023-05-08T23:20:29.114Z,5.50
2023-05-08T23:23:33.142Z,5.60
2023-05-08T23:26:36.827Z,5.70
2023-05-08T23:29:42.090Z,5.53
2023-05-08T23:32:46.543Z,5.67
2023-05-08T23:35:50.373Z,6.73
2023-05-08T23:38:54.134Z,5.87
2023-05-08T23:41:57.934Z,6.10
2023-05-08T23:45:02.949Z,5.90
2023-05-08T23:48:07.076Z,6.10
2023-05-08T23:51:10.889Z,5.70
2023-05-08T23:54:15.424Z,5.90
2023-05-08T23:57:19.241Z,6.00
